createdAt,value
2019-05-20T00:03:50.299Z,10.6
2019-05-20T00:08:53.749Z,10.7
2019-05-20T00:13:54.817Z,11
2019-05-20T00:18:58.270Z,13.9
2019-05-20T00:23:59.389Z,10.3
2019-05-20T00:29:01.735Z,9
2019-05-20T00:34:03.935Z,9.3
2019-05-20T00:39:06.245Z,8.8
2019-05-20T00:44:08.576Z,9.3
2019-05-20T00:49:11.024Z,10.5
2019-05-20T00:54:13.225Z,8.8
2019-05-20T00:59:15.526Z,11.6
2019-05-20T01:04:17.837Z,11.8
2019-05-20T01:09:20.098Z,11.8
2019-05-20T01:14:22.957Z,8.5
2019-05-20T01:19:24.735Z,13.7
2019-05-20T01:24:26.906Z,7
2019-05-20T01:29:29.212Z,13.2
2019-05-20T01:34:31.516Z,10.3
2019-05-20T01:39:35.649Z,9
2019-05-20T01:44:36.058Z,12.7
2019-05-20T01:49:38.522Z,11.3
2019-05-20T01:54:40.749Z,7.8
2019-05-20T01:59:43.088Z,12.4
2019-05-20T02:04:45.569Z,9.8
2019-05-20T02:09:47.573Z,9.5
2019-05-20T02:14:49.869Z,13.9
2019-05-20T02:19:52.117Z,8.4
2019-05-20T02:24:54.534Z,14
2019-05-20T02:29:56.744Z,9
2019-05-20T02:34:59.068Z,12.8
2019-05-20T02:45:03.749Z,9.5
2019-05-20T02:50:06.082Z,13.4
2019-05-20T02:55:08.364Z,10.7
2019-05-20T03:00:10.772Z,12.4
2019-05-20T03:05:12.794Z,11.4
2019-05-20T03:10:15.137Z,10.5
2019-05-20T03:15:17.427Z,12.5
2019-05-20T03:20:19.690Z,9.9
2019-05-20T03:25:21.941Z,14.1
2019-05-20T03:30:24.313Z,11.4
2019-05-20T03:35:26.869Z,9.1
2019-05-20T03:40:28.848Z,10.9
2019-05-20T03:45:31.180Z,13.6
2019-05-20T03:50:33.510Z,11.1
2019-05-20T03:55:36.171Z,12.3
2019-05-20T04:00:38.622Z,14
2019-05-20T04:05:40.322Z,13
2019-05-20T04:10:42.689Z,6
2019-05-20T04:15:44.995Z,7.4
2019-05-20T04:20:47.252Z,10.2
2019-05-20T04:25:49.673Z,9.6
2019-05-20T04:31:04.916Z,8.6
2019-05-20T04:36:06.096Z,13.3
2019-05-20T04:41:08.463Z,9.7
2019-05-20T04:46:10.723Z,11.4
2019-05-20T04:51:13.010Z,10.2
2019-05-20T04:56:15.369Z,7.8
2019-05-20T05:01:17.509Z,11.8
2019-05-20T05:06:19.851Z,9.8
2019-05-20T05:11:22.057Z,10.7
2019-05-20T05:16:24.382Z,7.9
2019-05-20T05:21:26.597Z,9
2019-05-20T05:26:29.004Z,7.5
2019-05-20T05:31:31.324Z,11
2019-05-20T05:36:33.542Z,12.5
2019-05-20T05:41:35.917Z,13.2
2019-05-20T05:46:38.098Z,12.9
2019-05-20T05:51:40.370Z,10.6
2019-05-20T05:56:42.756Z,11
2019-05-20T06:01:45.021Z,11
2019-05-20T06:06:47.274Z,10.2
2019-05-20T06:11:49.559Z,12.8
2019-05-20T06:16:51.857Z,13.7
2019-05-20T06:21:54.203Z,11
2019-05-20T06:26:56.545Z,13.3
2019-05-20T06:31:58.800Z,10.9
2019-05-20T06:37:00.994Z,12
2019-05-20T06:42:03.381Z,8.6
2019-05-20T06:47:05.612Z,12.3
2019-05-20T06:52:08.101Z,12.1
2019-05-20T06:57:10.356Z,12.7
2019-05-20T07:02:12.710Z,9.9
2019-05-20T07:07:20.786Z,11.5
2019-05-20T07:12:17.289Z,12
2019-05-20T07:17:19.526Z,13.9
2019-05-20T07:22:21.731Z,10.1
2019-05-20T07:27:23.982Z,10.2
2019-05-20T07:32:26.298Z,14.7
2019-05-20T07:37:28.614Z,7.4
2019-05-20T07:42:30.923Z,11.4
2019-05-20T07:47:33.151Z,11.4
2019-05-20T07:52:35.547Z,10.1
2019-05-20T07:57:37.753Z,7.8
2019-05-20T08:02:40.151Z,10.7
2019-05-20T08:07:51.968Z,10.2
2019-05-20T08:12:44.657Z,7
2019-05-20T08:17:46.997Z,8.6
2019-05-20T08:22:50.334Z,6.6
2019-05-20T08:27:51.639Z,6.6
2019-05-20T08:32:53.986Z,8.2
2019-05-20T08:37:56.364Z,12.2
2019-05-20T08:42:58.512Z,4.9
2019-05-20T08:48:00.891Z,8.2
2019-05-20T08:53:03.152Z,5.5
2019-05-20T08:58:05.358Z,6.1
2019-05-20T09:03:07.689Z,5.4
2019-05-20T09:08:09.861Z,5.1
2019-05-20T09:13:12.282Z,5.3
2019-05-20T09:18:14.522Z,4.1
2019-05-20T09:23:16.819Z,3.6
2019-05-20T09:28:19.055Z,5.9
2019-05-20T09:33:21.419Z,6.6
2019-05-20T09:38:23.657Z,2.4
2019-05-20T09:43:26.033Z,3.9
2019-05-20T09:48:28.277Z,4
2019-05-20T09:53:30.612Z,4.2
2019-05-20T10:04:17.535Z,5.5
2019-05-20T10:09:19.923Z,3.3
2019-05-20T10:14:22.107Z,3.8
2019-05-20T10:19:24.480Z,3.5
2019-05-20T10:24:26.577Z,5.3
2019-05-20T10:29:28.904Z,5.1
2019-05-20T10:34:31.206Z,5.4
2019-05-20T10:39:33.481Z,5.7
2019-05-20T10:44:35.748Z,10.6
2019-05-20T10:49:38.030Z,7.3
2019-05-20T10:54:40.306Z,9.4
2019-05-20T10:59:42.626Z,7.3
2019-05-20T11:04:45.019Z,5.9
2019-05-20T11:09:47.269Z,6
2019-05-20T11:14:49.766Z,8
2019-05-20T11:19:52.166Z,7.3
2019-05-20T11:24:54.162Z,7.5
2019-05-20T11:29:56.400Z,7.1
2019-05-20T11:34:58.797Z,5.9
2019-05-20T11:40:01.128Z,7.2
2019-05-20T11:45:03.419Z,7.5
2019-05-20T11:50:05.699Z,4.7
2019-05-20T11:55:07.903Z,7.1
2019-05-20T12:00:10.298Z,4.8
2019-05-20T12:05:12.539Z,4.9
2019-05-20T12:15:17.221Z,5.2
2019-05-20T12:20:19.473Z,5.2
2019-05-20T12:25:21.790Z,6.9
2019-05-20T12:30:24.080Z,8.7
2019-05-20T12:35:26.357Z,5.4
2019-05-20T12:40:28.507Z,6.1
2019-05-20T12:45:30.949Z,7.5
2019-05-20T12:50:33.258Z,5.1
2019-05-20T12:55:35.526Z,3.6
2019-05-20T13:00:37.773Z,5
2019-05-20T13:05:40.373Z,6.6
2019-05-20T13:10:42.407Z,7
2019-05-20T13:15:44.642Z,5
2019-05-20T13:20:47.067Z,7.2
2019-05-20T13:25:49.241Z,6.6
2019-05-20T13:30:51.780Z,6.3
2019-05-20T13:35:53.885Z,6.7
2019-05-20T13:40:56.163Z,7.1
2019-05-20T13:45:58.979Z,9.1
2019-05-20T13:51:00.673Z,8.2
2019-05-20T13:56:03.052Z,6.8
2019-05-20T14:01:05.305Z,8.6
2019-05-20T14:06:07.619Z,7.7
2019-05-20T14:11:09.919Z,8.9
2019-05-20T14:16:12.295Z,7.1
2019-05-20T14:21:14.651Z,5.7
2019-05-20T14:26:16.761Z,6.9
2019-05-20T14:31:19.067Z,5.9
2019-05-20T14:36:38.831Z,5.9
2019-05-20T14:41:23.755Z,5.5
2019-05-20T14:46:26.011Z,8.8
2019-05-20T14:51:28.840Z,7.1
2019-05-20T14:56:30.591Z,7.9
2019-05-20T15:01:32.850Z,7.6
2019-05-20T15:06:35.112Z,6.7
2019-05-20T15:11:38.738Z,7.8
2019-05-20T15:16:39.733Z,11.1
2019-05-20T15:21:41.963Z,9.4
2019-05-20T15:26:44.338Z,8.4
2019-05-20T15:31:46.792Z,11
2019-05-20T15:36:49.147Z,6.4
2019-05-20T15:41:51.276Z,7.9
2019-05-20T15:46:53.632Z,8.9
2019-05-20T15:51:55.922Z,8.1
2019-05-20T15:56:58.068Z,8.5
2019-05-20T16:02:00.456Z,6.6
2019-05-20T16:07:02.665Z,5.7
2019-05-20T16:12:05.005Z,7.6
2019-05-20T16:17:07.290Z,7.9
2019-05-20T16:22:09.501Z,7.8
2019-05-20T16:27:11.884Z,5.6
2019-05-20T16:32:14.173Z,6.3
2019-05-20T16:37:16.523Z,8.1
2019-05-20T16:42:18.848Z,6.6
2019-05-20T16:47:21.075Z,7.4
2019-05-20T16:52:23.247Z,7.9
2019-05-20T16:57:25.778Z,10.1
2019-05-20T17:02:27.938Z,8.5
2019-05-20T17:07:30.130Z,10.9
2019-05-20T17:12:32.462Z,9
2019-05-20T17:17:34.853Z,10.1
2019-05-20T17:22:37.109Z,9.2
2019-05-20T17:27:39.329Z,7.9
2019-05-20T17:32:41.665Z,8.7
2019-05-20T17:37:43.926Z,12
2019-05-20T17:42:46.187Z,12.4
2019-05-20T17:47:48.519Z,10.8
2019-05-20T17:52:50.775Z,8.9
2019-05-20T17:57:53.270Z,7.7
2019-05-20T18:02:55.614Z,8.2
2019-05-20T18:07:57.785Z,7
2019-05-20T18:13:00.024Z,5.3
2019-05-20T18:18:02.592Z,7.4
2019-05-20T18:23:04.698Z,6.8
2019-05-20T18:28:07.008Z,6.4
2019-05-20T18:33:09.119Z,7.9
2019-05-20T18:38:11.491Z,6.8
2019-05-20T18:43:13.756Z,8.2
2019-05-20T18:48:16.196Z,8.3
2019-05-20T18:53:18.342Z,6.1
2019-05-20T18:58:20.823Z,7.7
2019-05-20T19:03:23.515Z,8.6
2019-05-20T19:08:25.720Z,6.9
2019-05-20T19:13:27.612Z,9.3
2019-05-20T19:18:29.922Z,11.8
2019-05-20T19:23:32.066Z,6.3
2019-05-20T19:28:34.335Z,11.3
2019-05-20T19:33:36.804Z,14
2019-05-20T19:38:38.968Z,10.3
2019-05-20T19:43:41.297Z,15.8
2019-05-20T19:48:43.666Z,12.3
2019-05-20T19:53:45.917Z,16.6
2019-05-20T19:58:48.181Z,15.3
2019-05-20T20:03:50.470Z,17
2019-05-20T20:08:52.780Z,9.6
2019-05-20T20:13:55.011Z,12.3
2019-05-20T20:18:57.400Z,17.1
2019-05-20T20:23:59.673Z,15.3
2019-05-20T20:29:01.925Z,11.6
2019-05-20T20:34:04.250Z,13.4
2019-05-20T20:39:06.503Z,8.1
2019-05-20T20:44:08.798Z,10.4
2019-05-20T20:49:14.284Z,12.6
2019-05-20T20:54:13.511Z,13.9
2019-05-20T20:59:15.783Z,12.5
2019-05-20T21:04:17.967Z,15.7
2019-05-20T21:09:20.331Z,12
2019-05-20T21:14:22.654Z,11.7
2019-05-20T21:19:24.956Z,9.8
2019-05-20T21:24:27.115Z,9.7
2019-05-20T21:29:32.469Z,13.3
2019-05-20T21:34:31.766Z,12.2
2019-05-20T21:39:34.175Z,10.9
2019-05-20T21:44:36.376Z,12.1
2019-05-20T21:49:38.661Z,17.1
2019-05-20T21:54:40.989Z,15.9
2019-05-20T21:59:43.208Z,13.7
2019-05-20T22:04:45.697Z,8.8
2019-05-20T22:09:47.956Z,14.3
2019-05-20T22:14:50.366Z,13.4
2019-05-20T22:19:52.554Z,10
2019-05-20T22:24:54.894Z,11.4
2019-05-20T22:29:57.224Z,10.5
2019-05-20T22:34:59.425Z,13.1
2019-05-20T22:40:01.742Z,11.2
2019-05-20T22:45:03.952Z,9.2
2019-05-20T22:50:06.410Z,10.7
2019-05-20T22:55:08.689Z,13.5
2019-05-20T23:00:10.847Z,13.9
2019-05-20T23:05:13.127Z,8.1
2019-05-20T23:10:15.427Z,10.4
2019-05-20T23:15:17.650Z,12.3
2019-05-20T23:20:20.047Z,14.9
2019-05-20T23:25:22.253Z,10.6
2019-05-20T23:30:24.543Z,10.2
2019-05-20T23:35:27.011Z,12.6
2019-05-20T23:40:29.074Z,11.3
2019-05-20T23:45:31.427Z,10.4
2019-05-20T23:50:33.725Z,12.5
2019-05-20T23:55:35.966Z,10.4
